sensor_id;sensor_type;location;lat;lon;timestamp;P1;durP1;ratioP1;P2;durP2;ratioP2
38264;SDS011;24062;47.480;8.768;2023-09-12T00:00:09;5.22;;;4.07;;
38264;SDS011;24062;47.480;8.768;2023-09-12T00:02:36;4.80;;;4.30;;
38264;SDS011;24062;47.480;8.768;2023-09-12T00:05:04;4.03;;;3.72;;
38264;SDS011;24062;47.480;8.768;2023-09-12T00:07:31;4.20;;;3.78;;
38264;SDS011;24062;47.480;8.768;2023-09-12T00:09:58;5.53;;;4.18;;
38264;SDS011;24062;47.480;8.768;2023-09-12T00:12:26;4.07;;;3.78;;
38264;SDS011;24062;47.480;8.768;2023-09-12T00:14:53;4.10;;;3.80;;
38264;SDS011;24062;47.480;8.768;2023-09-12T00:17:20;4.00;;;3.67;;
38264;SDS011;24062;47.480;8.768;2023-09-12T00:19:47;3.45;;;3.15;;
38264;SDS011;24062;47.480;8.768;2023-09-12T00:22:15;4.45;;;4.15;;
38264;SDS011;24062;47.480;8.768;2023-09-12T00:24:42;4.10;;;3.70;;
38264;SDS011;24062;47.480;8.768;2023-09-12T00:27:09;4.10;;;3.80;;
38264;SDS011;24062;47.480;8.768;2023-09-12T00:29:38;5.50;;;4.18;;
38264;SDS011;24062;47.480;8.768;2023-09-12T00:32:05;4.35;;;4.05;;
38264;SDS011;24062;47.480;8.768;2023-09-12T00:34:32;4.55;;;4.15;;
38264;SDS011;24062;47.480;8.768;2023-09-12T00:36:59;4.30;;;4.00;;
38264;SDS011;24062;47.480;8.768;2023-09-12T00:39:25;4.57;;;4.28;;
38264;SDS011;24062;47.480;8.768;2023-09-12T00:41:52;3.75;;;3.45;;
38264;SDS011;24062;47.480;8.768;2023-09-12T00:44:19;4.18;;;3.88;;
38264;SDS011;24062;47.480;8.768;2023-09-12T00:46:48;3.92;;;3.63;;
38264;SDS011;24062;47.480;8.768;2023-09-12T00:49:16;4.28;;;3.97;;
38264;SDS011;24062;47.480;8.768;2023-09-12T00:51:44;4.40;;;4.10;;
38264;SDS011;24062;47.480;8.768;2023-09-12T00:54:12;4.43;;;4.13;;
38264;SDS011;24062;47.480;8.768;2023-09-12T00:56:39;4.40;;;4.00;;
38264;SDS011;24062;47.480;8.768;2023-09-12T00:59:06;4.10;;;3.80;;
38264;SDS011;24062;47.480;8.768;2023-09-12T01:01:34;4.38;;;4.07;;
38264;SDS011;24062;47.480;8.768;2023-09-12T01:04:03;4.22;;;3.92;;
38264;SDS011;24062;47.480;8.768;2023-09-12T01:06:30;4.25;;;3.95;;
38264;SDS011;24062;47.480;8.768;2023-09-12T01:08:59;3.72;;;3.42;;
38264;SDS011;24062;47.480;8.768;2023-09-12T01:11:26;3.85;;;3.55;;
38264;SDS011;24062;47.480;8.768;2023-09-12T01:13:54;4.20;;;3.90;;
38264;SDS011;24062;47.480;8.768;2023-09-12T01:16:21;3.70;;;3.28;;
38264;SDS011;24062;47.480;8.768;2023-09-12T01:18:48;4.40;;;4.03;;
38264;SDS011;24062;47.480;8.768;2023-09-12T01:24:23;4.00;;;3.60;;
38264;SDS011;24062;47.480;8.768;2023-09-12T01:27:34;3.90;;;3.60;;
38264;SDS011;24062;47.480;8.768;2023-09-12T01:30:04;3.80;;;3.50;;
38264;SDS011;24062;47.480;8.768;2023-09-12T01:32:33;3.83;;;3.53;;
38264;SDS011;24062;47.480;8.768;2023-09-12T01:35:01;3.90;;;3.60;;
38264;SDS011;24062;47.480;8.768;2023-09-12T01:37:29;4.07;;;3.67;;
38264;SDS011;24062;47.480;8.768;2023-09-12T01:39:56;3.83;;;3.53;;
38264;SDS011;24062;47.480;8.768;2023-09-12T01:42:24;3.97;;;3.67;;
38264;SDS011;24062;47.480;8.768;2023-09-12T01:44:58;4.30;;;4.00;;
38264;SDS011;24062;47.480;8.768;2023-09-12T01:47:27;3.70;;;3.40;;
38264;SDS011;24062;47.480;8.768;2023-09-12T01:49:56;4.50;;;4.20;;
38264;SDS011;24062;47.480;8.768;2023-09-12T01:52:25;4.03;;;3.72;;
38264;SDS011;24062;47.480;8.768;2023-09-12T01:54:53;3.90;;;3.60;;
38264;SDS011;24062;47.480;8.768;2023-09-12T01:57:21;4.00;;;3.70;;
38264;SDS011;24062;47.480;8.768;2023-09-12T01:59:49;4.00;;;3.70;;
38264;SDS011;24062;47.480;8.768;2023-09-12T02:02:17;4.32;;;4.03;;
38264;SDS011;24062;47.480;8.768;2023-09-12T02:04:45;3.45;;;3.25;;
38264;SDS011;24062;47.480;8.768;2023-09-12T02:07:17;3.75;;;3.45;;
38264;SDS011;24062;47.480;8.768;2023-09-12T02:09:44;4.10;;;3.55;;
38264;SDS011;24062;47.480;8.768;2023-09-12T02:12:11;3.55;;;3.30;;
38264;SDS011;24062;47.480;8.768;2023-09-12T02:14:38;3.70;;;3.40;;
38264;SDS011;24062;47.480;8.768;2023-09-12T02:17:05;4.00;;;3.70;;
38264;SDS011;24062;47.480;8.768;2023-09-12T02:19:33;4.10;;;3.80;;
38264;SDS011;24062;47.480;8.768;2023-09-12T02:22:00;3.92;;;3.63;;
38264;SDS011;24062;47.480;8.768;2023-09-12T02:24:27;3.80;;;3.50;;
38264;SDS011;24062;47.480;8.768;2023-09-12T02:26:54;3.40;;;3.20;;
38264;SDS011;24062;47.480;8.768;2023-09-12T02:29:21;4.00;;;3.70;;
38264;SDS011;24062;47.480;8.768;2023-09-12T02:31:48;3.38;;;3.17;;
38264;SDS011;24062;47.480;8.768;2023-09-12T02:34:15;3.53;;;3.22;;
38264;SDS011;24062;47.480;8.768;2023-09-12T02:36:43;4.20;;;3.90;;
38264;SDS011;24062;47.480;8.768;2023-09-12T02:39:10;3.30;;;3.05;;
38264;SDS011;24062;47.480;8.768;2023-09-12T02:41:37;3.35;;;3.15;;
38264;SDS011;24062;47.480;8.768;2023-09-12T02:44:04;3.35;;;3.05;;
38264;SDS011;24062;47.480;8.768;2023-09-12T02:46:32;3.60;;;3.30;;
38264;SDS011;24062;47.480;8.768;2023-09-12T02:48:59;3.95;;;3.65;;
38264;SDS011;24062;47.480;8.768;2023-09-12T02:51:26;3.38;;;3.17;;
38264;SDS011;24062;47.480;8.768;2023-09-12T02:53:54;3.80;;;3.50;;
38264;SDS011;24062;47.480;8.768;2023-09-12T02:56:21;3.95;;;3.65;;
38264;SDS011;24062;47.480;8.768;2023-09-12T02:58:48;4.05;;;3.75;;
38264;SDS011;24062;47.480;8.768;2023-09-12T03:01:15;3.83;;;3.50;;
38264;SDS011;24062;47.480;8.768;2023-09-12T03:03:43;3.83;;;3.42;;
38264;SDS011;24062;47.480;8.768;2023-09-12T03:06:12;3.50;;;3.20;;
38264;SDS011;24062;47.480;8.768;2023-09-12T03:08:39;3.55;;;3.35;;
38264;SDS011;24062;47.480;8.768;2023-09-12T03:11:07;3.60;;;3.40;;
38264;SDS011;24062;47.480;8.768;2023-09-12T03:13:34;4.55;;;3.92;;
38264;SDS011;24062;47.480;8.768;2023-09-12T03:16:02;4.10;;;3.80;;
38264;SDS011;24062;47.480;8.768;2023-09-12T03:18:30;4.05;;;3.65;;
38264;SDS011;24062;47.480;8.768;2023-09-12T03:20:57;4.18;;;3.88;;
38264;SDS011;24062;47.480;8.768;2023-09-12T03:23:23;3.97;;;3.67;;
38264;SDS011;24062;47.480;8.768;2023-09-12T03:25:50;4.15;;;3.83;;
38264;SDS011;24062;47.480;8.768;2023-09-12T03:28:19;4.05;;;3.75;;
38264;SDS011;24062;47.480;8.768;2023-09-12T03:30:46;4.10;;;3.80;;
38264;SDS011;24062;47.480;8.768;2023-09-12T03:33:13;3.90;;;3.60;;
38264;SDS011;24062;47.480;8.768;2023-09-12T03:35:39;4.47;;;4.07;;
38264;SDS011;24062;47.480;8.768;2023-09-12T03:38:10;4.22;;;3.92;;
38264;SDS011;24062;47.480;8.768;2023-09-12T03:40:37;3.95;;;3.65;;
38264;SDS011;24062;47.480;8.768;2023-09-12T03:43:04;4.82;;;4.43;;
38264;SDS011;24062;47.480;8.768;2023-09-12T03:45:32;4.20;;;3.90;;
38264;SDS011;24062;47.480;8.768;2023-09-12T03:47:59;4.80;;;4.03;;
38264;SDS011;24062;47.480;8.768;2023-09-12T03:50:26;4.40;;;4.10;;
38264;SDS011;24062;47.480;8.768;2023-09-12T03:52:53;4.18;;;3.88;;
38264;SDS011;24062;47.480;8.768;2023-09-12T03:55:19;4.22;;;3.92;;
38264;SDS011;24062;47.480;8.768;2023-09-12T03:57:46;4.45;;;4.15;;
38264;SDS011;24062;47.480;8.768;2023-09-12T04:00:14;5.05;;;4.65;;
38264;SDS011;24062;47.480;8.768;2023-09-12T04:02:43;4.47;;;4.18;;
38264;SDS011;24062;47.480;8.768;2023-09-12T04:05:10;4.55;;;4.25;;
38264;SDS011;24062;47.480;8.768;2023-09-12T04:07:37;5.07;;;4.68;;
38264;SDS011;24062;47.480;8.768;2023-09-12T04:10:04;4.20;;;3.90;;
38264;SDS011;24062;47.480;8.768;2023-09-12T04:12:31;4.65;;;4.25;;
38264;SDS011;24062;47.480;8.768;2023-09-12T04:14:58;5.15;;;4.82;;
38264;SDS011;24062;47.480;8.768;2023-09-12T04:17:25;5.15;;;4.85;;
38264;SDS011;24062;47.480;8.768;2023-09-12T04:19:53;4.50;;;4.20;;
38264;SDS011;24062;47.480;8.768;2023-09-12T04:22:20;3.92;;;3.63;;
38264;SDS011;24062;47.480;8.768;2023-09-12T04:24:47;4.93;;;4.53;;
38264;SDS011;24062;47.480;8.768;2023-09-12T04:27:14;4.20;;;3.90;;
38264;SDS011;24062;47.480;8.768;2023-09-12T04:29:41;5.00;;;4.68;;
38264;SDS011;24062;47.480;8.768;2023-09-12T04:32:08;4.97;;;4.68;;
38264;SDS011;24062;47.480;8.768;2023-09-12T04:34:35;5.53;;;5.13;;
38264;SDS011;24062;47.480;8.768;2023-09-12T04:37:04;4.53;;;4.22;;
38264;SDS011;24062;47.480;8.768;2023-09-12T04:39:31;5.03;;;4.70;;
38264;SDS011;24062;47.480;8.768;2023-09-12T04:41:58;4.53;;;4.22;;
38264;SDS011;24062;47.480;8.768;2023-09-12T04:44:25;4.63;;;4.32;;
38264;SDS011;24062;47.480;8.768;2023-09-12T04:46:52;4.70;;;4.18;;
38264;SDS011;24062;47.480;8.768;2023-09-12T04:49:19;4.57;;;4.28;;
38264;SDS011;24062;47.480;8.768;2023-09-12T04:51:47;4.90;;;4.60;;
38264;SDS011;24062;47.480;8.768;2023-09-12T04:54:15;5.43;;;5.03;;
38264;SDS011;24062;47.480;8.768;2023-09-12T04:56:42;5.47;;;4.97;;
38264;SDS011;24062;47.480;8.768;2023-09-12T04:59:09;4.80;;;4.40;;
38264;SDS011;24062;47.480;8.768;2023-09-12T05:01:36;4.72;;;4.38;;
38264;SDS011;24062;47.480;8.768;2023-09-12T05:04:03;4.55;;;4.15;;
38264;SDS011;24062;47.480;8.768;2023-09-12T05:06:30;5.07;;;4.68;;
38264;SDS011;24062;47.480;8.768;2023-09-12T05:08:57;4.30;;;4.00;;
38264;SDS011;24062;47.480;8.768;2023-09-12T05:11:25;4.60;;;4.30;;
38264;SDS011;24062;47.480;8.768;2023-09-12T05:13:52;5.22;;;4.60;;
38264;SDS011;24062;47.480;8.768;2023-09-12T05:16:19;4.53;;;4.13;;
38264;SDS011;24062;47.480;8.768;2023-09-12T05:18:46;4.97;;;4.57;;
38264;SDS011;24062;47.480;8.768;2023-09-12T05:21:14;4.90;;;4.50;;
38264;SDS011;24062;47.480;8.768;2023-09-12T05:23:41;5.00;;;4.68;;
38264;SDS011;24062;47.480;8.768;2023-09-12T05:26:08;5.00;;;4.60;;
38264;SDS011;24062;47.480;8.768;2023-09-12T05:28:36;5.18;;;4.78;;
38264;SDS011;24062;47.480;8.768;2023-09-12T05:31:03;5.15;;;4.70;;
38264;SDS011;24062;47.480;8.768;2023-09-12T05:33:30;5.50;;;5.00;;
38264;SDS011;24062;47.480;8.768;2023-09-12T05:35:57;5.90;;;4.65;;
38264;SDS011;24062;47.480;8.768;2023-09-12T05:38:24;5.68;;;5.18;;
38264;SDS011;24062;47.480;8.768;2023-09-12T05:40:51;5.22;;;4.82;;
38264;SDS011;24062;47.480;8.768;2023-09-12T05:43:18;4.80;;;4.50;;
38264;SDS011;24062;47.480;8.768;2023-09-12T05:45:46;5.00;;;4.60;;
38264;SDS011;24062;47.480;8.768;2023-09-12T05:48:13;4.82;;;4.43;;
38264;SDS011;24062;47.480;8.768;2023-09-12T05:50:40;5.05;;;4.65;;
38264;SDS011;24062;47.480;8.768;2023-09-12T05:53:07;5.05;;;4.45;;
38264;SDS011;24062;47.480;8.768;2023-09-12T05:55:34;5.20;;;4.88;;
38264;SDS011;24062;47.480;8.768;2023-09-12T05:58:02;4.45;;;4.13;;
38264;SDS011;24062;47.480;8.768;2023-09-12T06:00:31;4.82;;;4.43;;
38264;SDS011;24062;47.480;8.768;2023-09-12T06:02:59;5.00;;;4.60;;
38264;SDS011;24062;47.480;8.768;2023-09-12T06:05:26;5.30;;;4.47;;
38264;SDS011;24062;47.480;8.768;2023-09-12T06:07:53;4.30;;;4.00;;
38264;SDS011;24062;47.480;8.768;2023-09-12T06:10:20;4.22;;;3.90;;
38264;SDS011;24062;47.480;8.768;2023-09-12T06:12:47;5.53;;;5.13;;
38264;SDS011;24062;47.480;8.768;2023-09-12T06:15:15;5.38;;;4.88;;
38264;SDS011;24062;47.480;8.768;2023-09-12T06:17:42;5.00;;;4.60;;
38264;SDS011;24062;47.480;8.768;2023-09-12T06:20:11;5.07;;;4.68;;
38264;SDS011;24062;47.480;8.768;2023-09-12T06:22:38;5.05;;;4.53;;
38264;SDS011;24062;47.480;8.768;2023-09-12T06:25:05;4.80;;;4.40;;
38264;SDS011;24062;47.480;8.768;2023-09-12T06:27:32;4.60;;;4.30;;
38264;SDS011;24062;47.480;8.768;2023-09-12T06:29:59;5.28;;;4.88;;
38264;SDS011;24062;47.480;8.768;2023-09-12T06:32:26;4.82;;;4.50;;
38264;SDS011;24062;47.480;8.768;2023-09-12T06:34:53;5.97;;;5.13;;
38264;SDS011;24062;47.480;8.768;2023-09-12T06:37:22;4.10;;;3.80;;
38264;SDS011;24062;47.480;8.768;2023-09-12T06:39:49;4.18;;;3.88;;
38264;SDS011;24062;47.480;8.768;2023-09-12T06:42:16;4.70;;;4.30;;
38264;SDS011;24062;47.480;8.768;2023-09-12T06:44:44;4.32;;;4.03;;
38264;SDS011;24062;47.480;8.768;2023-09-12T06:47:11;5.07;;;4.68;;
38264;SDS011;24062;47.480;8.768;2023-09-12T06:49:38;5.00;;;4.60;;
38264;SDS011;24062;47.480;8.768;2023-09-12T06:52:05;5.10;;;4.80;;
38264;SDS011;24062;47.480;8.768;2023-09-12T06:54:35;5.30;;;4.70;;
38264;SDS011;24062;47.480;8.768;2023-09-12T06:57:02;6.63;;;4.28;;
38264;SDS011;24062;47.480;8.768;2023-09-12T06:59:30;5.15;;;4.65;;
38264;SDS011;24062;47.480;8.768;2023-09-12T07:01:57;4.10;;;3.80;;
38264;SDS011;24062;47.480;8.768;2023-09-12T07:04:24;4.97;;;4.57;;
38264;SDS011;24062;47.480;8.768;2023-09-12T07:06:51;4.60;;;4.30;;
38264;SDS011;24062;47.480;8.768;2023-09-12T07:09:18;4.43;;;4.13;;
38264;SDS011;24062;47.480;8.768;2023-09-12T07:11:47;4.68;;;4.35;;
38264;SDS011;24062;47.480;8.768;2023-09-12T07:14:14;4.63;;;4.32;;
38264;SDS011;24062;47.480;8.768;2023-09-12T07:16:41;4.07;;;3.78;;
38264;SDS011;24062;47.480;8.768;2023-09-12T07:19:08;4.68;;;4.38;;
38264;SDS011;24062;47.480;8.768;2023-09-12T07:21:35;4.55;;;4.22;;
38264;SDS011;24062;47.480;8.768;2023-09-12T07:24:02;4.97;;;4.65;;
38264;SDS011;24062;47.480;8.768;2023-09-12T07:26:30;4.70;;;4.40;;
38264;SDS011;24062;47.480;8.768;2023-09-12T07:28:58;4.30;;;4.00;;
38264;SDS011;24062;47.480;8.768;2023-09-12T07:31:27;4.78;;;4.47;;
38264;SDS011;24062;47.480;8.768;2023-09-12T07:33:54;5.00;;;4.60;;
38264;SDS011;24062;47.480;8.768;2023-09-12T07:36:21;4.60;;;4.30;;
38264;SDS011;24062;47.480;8.768;2023-09-12T07:38:48;4.40;;;4.10;;
38264;SDS011;24062;47.480;8.768;2023-09-12T07:41:15;5.20;;;4.88;;
38264;SDS011;24062;47.480;8.768;2023-09-12T07:43:42;4.60;;;4.30;;
38264;SDS011;24062;47.480;8.768;2023-09-12T07:46:10;5.20;;;4.80;;
38264;SDS011;24062;47.480;8.768;2023-09-12T07:48:38;3.90;;;3.60;;
38264;SDS011;24062;47.480;8.768;2023-09-12T07:51:11;4.40;;;4.10;;
38264;SDS011;24062;47.480;8.768;2023-09-12T07:53:39;4.20;;;3.90;;
38264;SDS011;24062;47.480;8.768;2023-09-12T07:56:06;4.57;;;4.28;;
38264;SDS011;24062;47.480;8.768;2023-09-12T07:58:34;4.22;;;3.92;;
38264;SDS011;24062;47.480;8.768;2023-09-12T08:01:04;4.53;;;4.13;;
38264;SDS011;24062;47.480;8.768;2023-09-12T08:03:34;3.80;;;3.50;;
38264;SDS011;24062;47.480;8.768;2023-09-12T08:06:01;4.30;;;4.00;;
38264;SDS011;24062;47.480;8.768;2023-09-12T08:08:28;4.35;;;4.05;;
38264;SDS011;24062;47.480;8.768;2023-09-12T08:10:55;4.15;;;3.85;;
38264;SDS011;24062;47.480;8.768;2023-09-12T08:13:25;4.10;;;3.80;;
38264;SDS011;24062;47.480;8.768;2023-09-12T08:15:52;4.30;;;4.00;;
38264;SDS011;24062;47.480;8.768;2023-09-12T08:18:19;4.00;;;3.70;;
38264;SDS011;24062;47.480;8.768;2023-09-12T08:20:48;4.18;;;3.88;;
38264;SDS011;24062;47.480;8.768;2023-09-12T08:23:15;3.80;;;3.50;;
38264;SDS011;24062;47.480;8.768;2023-09-12T08:25:41;4.10;;;3.80;;
38264;SDS011;24062;47.480;8.768;2023-09-12T08:28:08;4.30;;;4.00;;
38264;SDS011;24062;47.480;8.768;2023-09-12T08:30:35;4.57;;;4.28;;
38264;SDS011;24062;47.480;8.768;2023-09-12T08:33:02;4.03;;;3.72;;
38264;SDS011;24062;47.480;8.768;2023-09-12T08:35:31;4.28;;;3.97;;
38264;SDS011;24062;47.480;8.768;2023-09-12T08:38:00;4.22;;;3.92;;
38264;SDS011;24062;47.480;8.768;2023-09-12T08:40:27;4.13;;;3.83;;
38264;SDS011;24062;47.480;8.768;2023-09-12T08:42:55;4.07;;;3.78;;
38264;SDS011;24062;47.480;8.768;2023-09-12T08:45:24;4.80;;;4.50;;
38264;SDS011;24062;47.480;8.768;2023-09-12T08:47:52;4.70;;;4.40;;
38264;SDS011;24062;47.480;8.768;2023-09-12T08:50:20;4.72;;;4.32;;
38264;SDS011;24062;47.480;8.768;2023-09-12T08:52:48;4.63;;;4.32;;
38264;SDS011;24062;47.480;8.768;2023-09-12T08:55:17;4.45;;;4.15;;
38264;SDS011;24062;47.480;8.768;2023-09-12T08:57:44;4.70;;;4.40;;
38264;SDS011;24062;47.480;8.768;2023-09-12T09:00:16;4.28;;;3.97;;
38264;SDS011;24062;47.480;8.768;2023-09-12T09:02:43;4.40;;;3.80;;
38264;SDS011;24062;47.480;8.768;2023-09-12T09:05:11;4.50;;;4.20;;
38264;SDS011;24062;47.480;8.768;2023-09-12T09:07:40;4.25;;;3.92;;
38264;SDS011;24062;47.480;8.768;2023-09-12T09:10:10;4.68;;;4.38;;
38264;SDS011;24062;47.480;8.768;2023-09-12T09:12:43;4.30;;;4.00;;
38264;SDS011;24062;47.480;8.768;2023-09-12T09:15:20;4.43;;;4.13;;
38264;SDS011;24062;47.480;8.768;2023-09-12T09:17:48;4.18;;;3.88;;
38264;SDS011;24062;47.480;8.768;2023-09-12T09:20:25;4.80;;;4.50;;
38264;SDS011;24062;47.480;8.768;2023-09-12T09:23:00;5.00;;;4.60;;
38264;SDS011;24062;47.480;8.768;2023-09-12T09:25:30;4.82;;;4.53;;
38264;SDS011;24062;47.480;8.768;2023-09-12T09:27:59;4.90;;;4.47;;
38264;SDS011;24062;47.480;8.768;2023-09-12T09:30:38;4.90;;;4.50;;
38264;SDS011;24062;47.480;8.768;2023-09-12T09:33:07;4.85;;;4.55;;
38264;SDS011;24062;47.480;8.768;2023-09-12T09:35:34;4.90;;;4.60;;
38264;SDS011;24062;47.480;8.768;2023-09-12T09:38:02;4.85;;;4.50;;
38264;SDS011;24062;47.480;8.768;2023-09-12T09:40:31;4.63;;;4.32;;
38264;SDS011;24062;47.480;8.768;2023-09-12T09:43:01;4.53;;;4.13;;
38264;SDS011;24062;47.480;8.768;2023-09-12T09:45:29;4.53;;;4.22;;
38264;SDS011;24062;47.480;8.768;2023-09-12T09:47:57;4.40;;;4.10;;
38264;SDS011;24062;47.480;8.768;2023-09-12T09:50:25;4.55;;;4.25;;
38264;SDS011;24062;47.480;8.768;2023-09-12T09:52:54;4.80;;;4.50;;
38264;SDS011;24062;47.480;8.768;2023-09-12T09:55:23;4.25;;;3.95;;
38264;SDS011;24062;47.480;8.768;2023-09-12T09:57:50;4.20;;;3.90;;
38264;SDS011;24062;47.480;8.768;2023-09-12T10:00:20;3.85;;;3.55;;
38264;SDS011;24062;47.480;8.768;2023-09-12T10:02:49;5.28;;;4.88;;
38264;SDS011;24062;47.480;8.768;2023-09-12T10:05:17;3.92;;;3.63;;
38264;SDS011;24062;47.480;8.768;2023-09-12T10:07:46;4.20;;;3.90;;
38264;SDS011;24062;47.480;8.768;2023-09-12T10:10:14;4.78;;;4.38;;
38264;SDS011;24062;47.480;8.768;2023-09-12T10:12:44;4.28;;;3.97;;
38264;SDS011;24062;47.480;8.768;2023-09-12T10:15:15;4.10;;;3.80;;
38264;SDS011;24062;47.480;8.768;2023-09-12T10:17:50;4.25;;;3.95;;
38264;SDS011;24062;47.480;8.768;2023-09-12T10:20:22;4.72;;;4.43;;
38264;SDS011;24062;47.480;8.768;2023-09-12T10:22:56;4.93;;;4.60;;
38264;SDS011;24062;47.480;8.768;2023-09-12T10:25:32;4.50;;;4.13;;
38264;SDS011;24062;47.480;8.768;2023-09-12T10:28:01;4.07;;;3.78;;
38264;SDS011;24062;47.480;8.768;2023-09-12T10:30:31;4.38;;;4.07;;
38264;SDS011;24062;47.480;8.768;2023-09-12T10:33:00;4.40;;;4.10;;
38264;SDS011;24062;47.480;8.768;2023-09-12T10:35:29;5.10;;;4.25;;
38264;SDS011;24062;47.480;8.768;2023-09-12T10:37:58;4.63;;;4.32;;
38264;SDS011;24062;47.480;8.768;2023-09-12T10:40:27;4.50;;;4.20;;
38264;SDS011;24062;47.480;8.768;2023-09-12T10:42:55;4.68;;;4.38;;
38264;SDS011;24062;47.480;8.768;2023-09-12T10:45:22;4.75;;;4.35;;
38264;SDS011;24062;47.480;8.768;2023-09-12T10:47:51;5.28;;;4.97;;
38264;SDS011;24062;47.480;8.768;2023-09-12T10:50:19;4.68;;;4.38;;
38264;SDS011;24062;47.480;8.768;2023-09-12T10:52:46;4.88;;;4.35;;
38264;SDS011;24062;47.480;8.768;2023-09-12T10:55:15;5.13;;;4.72;;
38264;SDS011;24062;47.480;8.768;2023-09-12T10:58:02;6.28;;;4.43;;
38264;SDS011;24062;47.480;8.768;2023-09-12T11:00:30;5.15;;;4.10;;
38264;SDS011;24062;47.480;8.768;2023-09-12T11:03:01;4.75;;;4.45;;
38264;SDS011;24062;47.480;8.768;2023-09-12T11:06:03;4.75;;;4.45;;
38264;SDS011;24062;47.480;8.768;2023-09-12T11:08:34;4.70;;;4.30;;
38264;SDS011;24062;47.480;8.768;2023-09-12T11:11:18;4.95;;;4.63;;
38264;SDS011;24062;47.480;8.768;2023-09-12T11:13:46;5.03;;;4.63;;
38264;SDS011;24062;47.480;8.768;2023-09-12T11:16:28;4.85;;;4.45;;
38264;SDS011;24062;47.480;8.768;2023-09-12T11:19:16;4.95;;;4.55;;
38264;SDS011;24062;47.480;8.768;2023-09-12T11:21:45;5.07;;;4.78;;
38264;SDS011;24062;47.480;8.768;2023-09-12T11:24:13;5.20;;;4.80;;
38264;SDS011;24062;47.480;8.768;2023-09-12T11:26:53;4.97;;;4.68;;
38264;SDS011;24062;47.480;8.768;2023-09-12T11:29:22;5.03;;;4.63;;
38264;SDS011;24062;47.480;8.768;2023-09-12T11:31:54;5.47;;;4.97;;
38264;SDS011;24062;47.480;8.768;2023-09-12T11:34:27;5.03;;;4.63;;
38264;SDS011;24062;47.480;8.768;2023-09-12T11:36:57;4.72;;;4.43;;
38264;SDS011;24062;47.480;8.768;2023-09-12T11:39:27;4.35;;;3.95;;
38264;SDS011;24062;47.480;8.768;2023-09-12T11:41:56;4.93;;;4.57;;
38264;SDS011;24062;47.480;8.768;2023-09-12T11:44:24;4.20;;;3.90;;
38264;SDS011;24062;47.480;8.768;2023-09-12T11:46:52;4.95;;;4.65;;
38264;SDS011;24062;47.480;8.768;2023-09-12T11:49:19;4.60;;;4.30;;
38264;SDS011;24062;47.480;8.768;2023-09-12T11:51:49;5.05;;;4.75;;
38264;SDS011;24062;47.480;8.768;2023-09-12T11:54:20;5.47;;;4.88;;
38264;SDS011;24062;47.480;8.768;2023-09-12T11:56:51;4.72;;;4.32;;
38264;SDS011;24062;47.480;8.768;2023-09-12T11:59:22;4.30;;;4.00;;
38264;SDS011;24062;47.480;8.768;2023-09-12T12:01:49;4.35;;;4.05;;
38264;SDS011;24062;47.480;8.768;2023-09-12T12:04:16;5.60;;;4.20;;
38264;SDS011;24062;47.480;8.768;2023-09-12T12:06:44;4.25;;;3.95;;
38264;SDS011;24062;47.480;8.768;2023-09-12T12:09:12;4.90;;;4.50;;
38264;SDS011;24062;47.480;8.768;2023-09-12T12:11:39;4.55;;;4.25;;
38264;SDS011;24062;47.480;8.768;2023-09-12T12:14:11;4.32;;;4.03;;
38264;SDS011;24062;47.480;8.768;2023-09-12T12:16:40;4.38;;;3.97;;
38264;SDS011;24062;47.480;8.768;2023-09-12T12:19:07;5.10;;;4.80;;
38264;SDS011;24062;47.480;8.768;2023-09-12T12:21:34;5.00;;;4.60;;
38264;SDS011;24062;47.480;8.768;2023-09-12T12:24:02;4.97;;;4.50;;
38264;SDS011;24062;47.480;8.768;2023-09-12T12:26:31;4.40;;;4.07;;
38264;SDS011;24062;47.480;8.768;2023-09-12T12:28:59;5.53;;;5.13;;
38264;SDS011;24062;47.480;8.768;2023-09-12T12:31:27;4.80;;;4.50;;
38264;SDS011;24062;47.480;8.768;2023-09-12T12:33:54;4.75;;;4.35;;
38264;SDS011;24062;47.480;8.768;2023-09-12T12:36:22;5.03;;;4.55;;
38264;SDS011;24062;47.480;8.768;2023-09-12T12:38:49;5.07;;;4.68;;
38264;SDS011;24062;47.480;8.768;2023-09-12T12:41:21;4.55;;;4.15;;
38264;SDS011;24062;47.480;8.768;2023-09-12T12:43:50;4.50;;;4.20;;
38264;SDS011;24062;47.480;8.768;2023-09-12T12:46:17;4.70;;;4.30;;
38264;SDS011;24062;47.480;8.768;2023-09-12T12:48:46;4.70;;;4.30;;
38264;SDS011;24062;47.480;8.768;2023-09-12T12:51:14;5.13;;;4.72;;
38264;SDS011;24062;47.480;8.768;2023-09-12T12:53:43;5.07;;;4.60;;
38264;SDS011;24062;47.480;8.768;2023-09-12T12:56:14;4.50;;;4.18;;
38264;SDS011;24062;47.480;8.768;2023-09-12T12:58:47;4.35;;;4.05;;
38264;SDS011;24062;47.480;8.768;2023-09-12T13:01:16;4.60;;;4.30;;
38264;SDS011;24062;47.480;8.768;2023-09-12T13:03:43;4.80;;;4.50;;
38264;SDS011;24062;47.480;8.768;2023-09-12T13:06:11;4.45;;;4.07;;
38264;SDS011;24062;47.480;8.768;2023-09-12T13:08:42;4.85;;;4.55;;
38264;SDS011;24062;47.480;8.768;2023-09-12T13:11:10;5.13;;;4.78;;
38264;SDS011;24062;47.480;8.768;2023-09-12T13:13:39;4.63;;;4.32;;
38264;SDS011;24062;47.480;8.768;2023-09-12T13:16:07;4.75;;;4.45;;
38264;SDS011;24062;47.480;8.768;2023-09-12T13:18:37;4.68;;;4.38;;
38264;SDS011;24062;47.480;8.768;2023-09-12T13:21:05;4.95;;;4.65;;
38264;SDS011;24062;47.480;8.768;2023-09-12T13:23:33;4.50;;;4.20;;
38264;SDS011;24062;47.480;8.768;2023-09-12T13:26:00;4.18;;;3.88;;
38264;SDS011;24062;47.480;8.768;2023-09-12T13:28:28;4.38;;;4.07;;
38264;SDS011;24062;47.480;8.768;2023-09-12T13:30:55;4.88;;;4.47;;
38264;SDS011;24062;47.480;8.768;2023-09-12T13:33:22;4.80;;;4.43;;
38264;SDS011;24062;47.480;8.768;2023-09-12T13:35:51;4.45;;;4.15;;
38264;SDS011;24062;47.480;8.768;2023-09-12T13:38:18;5.07;;;4.78;;
38264;SDS011;24062;47.480;8.768;2023-09-12T13:40:46;4.70;;;4.30;;
38264;SDS011;24062;47.480;8.768;2023-09-12T13:43:13;5.03;;;4.72;;
38264;SDS011;24062;47.480;8.768;2023-09-12T13:45:40;4.20;;;3.90;;
38264;SDS011;24062;47.480;8.768;2023-09-12T13:48:07;4.47;;;4.18;;
38264;SDS011;24062;47.480;8.768;2023-09-12T13:50:34;4.55;;;4.25;;
38264;SDS011;24062;47.480;8.768;2023-09-12T13:53:03;4.80;;;4.50;;
38264;SDS011;24062;47.480;8.768;2023-09-12T13:55:31;4.97;;;4.68;;
38264;SDS011;24062;47.480;8.768;2023-09-12T13:58:00;4.78;;;4.43;;
38264;SDS011;24062;47.480;8.768;2023-09-12T14:00:27;4.80;;;4.40;;
38264;SDS011;24062;47.480;8.768;2023-09-12T14:02:54;5.00;;;4.60;;
38264;SDS011;24062;47.480;8.768;2023-09-12T14:05:21;4.93;;;4.63;;
38264;SDS011;24062;47.480;8.768;2023-09-12T14:07:49;4.47;;;4.18;;
38264;SDS011;24062;47.480;8.768;2023-09-12T14:10:18;5.15;;;4.75;;
38264;SDS011;24062;47.480;8.768;2023-09-12T14:12:45;5.15;;;4.85;;
38264;SDS011;24062;47.480;8.768;2023-09-12T14:15:12;5.00;;;4.70;;
38264;SDS011;24062;47.480;8.768;2023-09-12T14:17:40;4.90;;;4.53;;
38264;SDS011;24062;47.480;8.768;2023-09-12T14:20:07;4.68;;;4.38;;
38264;SDS011;24062;47.480;8.768;2023-09-12T14:22:35;5.30;;;4.93;;
38264;SDS011;24062;47.480;8.768;2023-09-12T14:25:03;4.80;;;4.43;;
38264;SDS011;24062;47.480;8.768;2023-09-12T14:27:31;5.35;;;5.00;;
38264;SDS011;24062;47.480;8.768;2023-09-12T14:29:58;5.05;;;4.75;;
38264;SDS011;24062;47.480;8.768;2023-09-12T14:32:25;5.03;;;4.63;;
38264;SDS011;24062;47.480;8.768;2023-09-12T14:34:52;5.50;;;5.10;;
38264;SDS011;24062;47.480;8.768;2023-09-12T14:37:19;4.70;;;4.38;;
38264;SDS011;24062;47.480;8.768;2023-09-12T14:39:47;4.65;;;4.35;;
38264;SDS011;24062;47.480;8.768;2023-09-12T14:42:15;5.25;;;4.85;;
38264;SDS011;24062;47.480;8.768;2023-09-12T14:44:43;4.72;;;4.32;;
38264;SDS011;24062;47.480;8.768;2023-09-12T14:47:10;4.53;;;4.13;;
38264;SDS011;24062;47.480;8.768;2023-09-12T14:49:37;4.55;;;4.25;;
38264;SDS011;24062;47.480;8.768;2023-09-12T14:52:04;4.50;;;4.20;;
38264;SDS011;24062;47.480;8.768;2023-09-12T14:54:31;5.05;;;4.75;;
38264;SDS011;24062;47.480;8.768;2023-09-12T14:56:58;4.93;;;4.55;;